首页
METAR-TAF:

METAR-TAF

机场 :

呼和浩特白塔国际机场

呼和浩特, 中华人民共和国

纬度: 40-49N, 经度: 111-41E, 海拔: 1065米

当前天气观测

该预报发布于1小时和4分钟前的01:00 UTC
风速12节,风向西北
温度 15°C
湿度 44%
气压 1019 hPa
能见度10公里或以上
散云层高于4000英尺

METAR: ZBHH 260100Z 31006MPS 9999 SCT040 15/03 Q1019 NOSIG

时间: 10:04 (02:04 UTC)

预报

该预报发布于6小时和58分钟前的19:06 UTC
预报有效从26日的 00点(UTC)到 26日的 24点(UTC)
风速16节,风向北转西北,有时为25节阵风
能见度10公里或以上
少量云层高于4000英尺
成为
从 26日的 13点(UTC)到 26日的 14点(UTC)
风速8节,风向

TAF: ZBHH 251906Z 2600/2624 33008G13MPS 9999 FEW040 TX24/2607Z TN13/2623Z BECMG 2613/2614 08004MPS

超过4000个机场的气象观测和天气预报(METAR&TAF报告)。

可查询的气象台以黄色和红色小点在地图上表示。

将鼠标移到小点上方,可查看气象台名称。

然后点击查看天气观测和预报。

如需切换地图:点击带黑十字的绿色按钮放大地图;点击带横线的绿色按钮缩小地图;或者点击绿色箭头查看邻近地区的地图。


METAR-TAF: